Denver, CO (80261)

7:48 PM MDT on July 27, 2016 (GMT -0600)
Platt Park | | Change Station
Active Advisory: Severe Thunderstorm Warning

Elev 5289 ft 39.69 °N, 104.98 °W | Updated 7 minutes ago

Scattered Clouds
Scattered Clouds
85.0 °F
Feels Like 85 °F
N
5.0
Wind Variable Wind from East

Today
High -- | Low -- °F
--% Chance of Precip.
Yesterday
High -- | Low -- °F
Precip. -- in
Pressure 29.91 in
Visibility 10.0 miles
Clouds Few 13000 ft
Scattered Clouds 22000 ft
Heat Index 85 °F
Dew Point 61 °F
Humidity 45%
Rainfall 0.00 in
Snow Depth Not available.
5:55 AM 8:17 PM
Last Quarter, 37% visible
METAR KAPA 280053Z 05006KT 10SM FEW130 SCT220 32/02 A3015 RMK AO2 SLP129 T03170022
Pressure 29.91 in
Visibility 10.0 miles
Clouds Few 13000 ft
Scattered Clouds 22000 ft
Heat Index 85 °F
Dew Point 61 °F
Humidity 45%
Rainfall 0.00 in
Snow Depth Not available.
5:55 AM 8:17 PM
Last Quarter, 37% visible
METAR KAPA 280053Z 05006KT 10SM FEW130 SCT220 32/02 A3015 RMK AO2 SLP129 T03170022

10-Day Weather Forecast

Almanac

Astronomy

Jul. 27, 2016 Rise Set
Actual Time
Civil Twilight
Nautical Twilight
Astronomical Twilight
Moon
Length of Visible Light
Length of Day
Tomorrow will be .
, % of the Moon is Illuminated

Today's Extremes

State Highs State Lows

Community

WunderPhotos

Upload Photos

1,928,005 photos uploaded!

WunderBlog® & News

Nearby

Air Quality

  Air Quality AQ Index Pollutant
Not available.

Snow Depth

Station Depth Elevation

Earthquake Activity

City Distance Mag. Time & Date
Minimum magnitude displayed is 2.5.

Coastal Water Temperatures

Place Temperature

Stations

Nearby Weather Stations

Station Location Temp. Windchill Dew Point Humidity Wind Precip. Elev Updated Type
                   

Watches & Warnings

Severe Thunderstorm Warning
Issued: 7:44 PM MDT Jul. 27, 2016 – National Weather Service

... The Severe Thunderstorm Warning for southwestern Washington...
eastern Arapahoe... southeastern Adams and north central Lincoln
counties is cancelled...

the storm which prompted the warning has weakened below severe
limits... and has exited the warned area. Therefore the warning has
been cancelled.

Lat... Lon 3956 10371 3957 10379 3989 10387 3996 10363
      3954 10341 3947 10371
time... Mot... loc 0142z 346deg 26kt 3969 10370


Bowen